Aérodrome :
LOGIN :

S'inscrire | Disclaimer

   EN    FR    IT 

 










Légende :    VFR   VFR Marginal   IFR   IFR Intensif   IFR Très Intensif
Visi : 
Plafond : 
>= 8 km
>= 3000ft
5 à 8 km
1000 à 3000 ft
1500m à 5 km
500 à 1000 ft
800 à 1500m
200 à 500 ft
< 800m
< 200 ft
Symboles :   Orages  Brouillard  Fortes neiges  Fortes précipitations  Vent > 20 kt
SIGMETs :   Divers  Orages  Givrage  Turbulence  Onde Orograph.  Cendres Volcan.







- Altitude de l'aérodrome : 13 ft
- Code IATA : GOA


LIMJ - Genoa Cristoforo Colombo

DERNIER METAR :
  • 200850Z 02003KT CAVOK 10/M04 Q1014

METARs EXPIRÉS :
  • 200820Z VRB02KT CAVOK 10/M03 Q1014
  • 200750Z VRB02KT CAVOK 10/M03 Q1013
  • 200720Z 10009KT CAVOK 08/M04 Q1013
  • 200650Z 33009KT 300V010 CAVOK 11/M06 Q1013
  • 200620Z 01009KT 320V040 CAVOK 11/M06 Q1013

TAF TAF LIMJ
Valide du 20 à 06h jusqu'au 21 à 06h UTC


200500Z 2006/2106 03007KT CAVOK
Pas de NOTAMs connus pour ce terrain.
1 SIGMET publié pour la FIR Milano (LIMM) :
 
Turbulence forte
LIMM SIGMET 1 VALID 200830/201130 LIIP
LIMM MILANO FIR SEV TURB FCST WI N4627 E00956 - N4346 E01045 - N4339 E01239 - N4632 E01226 - N4700 E01205 - N4650 E01027 - N4627 E00956 FL230/330 MOV E NC=



MET'MAP, la Météo Aéronautique d'un coup d'oeil ! - Copyright ORBIFLY Décembre 2007 - Disclaimer

ORBIFLY MET'MAP TEAM :

Programmation & Développement : Alexandra Zaïnal
Conception & Développement : Baudouin d'Aumeries
Co-Programmation & Développement : Marc-Olivier Méhu
Soutien technique & logistique : Manuel Goepfert

Contact : metmap@orbifly.com




SOURCES & CREDITS :

   NOAA